Time;durP1;ratioP1;P1;durP2;ratioP2;P2;SDS_P1;SDS_P2;PMS_P1;PMS_P2;Temp;Humidity;BMP_temperature;BMP_pressure;BME280_temperature;BME280_humidity;BME280_pressure;Samples;Min_cycle;Max_cycle;Signal;HPM_P1;HPM_P2
2023/10/18 00:00:04;;;;;;;7.00;3.13;;;6.20;99.90;;;;;;5013415;28;20046;-69
2023/10/18 00:02:30;;;;;;;6.35;3.03;;;6.20;99.90;;;;;;5018513;28;20049;-70
2023/10/18 00:04:57;;;;;;;11.55;3.50;;;6.30;99.90;;;;;;5014784;28;20662;-70
2023/10/18 00:07:23;;;;;;;8.10;3.13;;;6.20;99.90;;;;;;5014543;28;20454;-70
2023/10/18 00:09:49;;;;;;;9.87;3.07;;;6.20;99.90;;;;;;4996575;28;20615;-69
2023/10/18 00:12:18;;;;;;;6.13;3.20;;;6.20;99.90;;;;;;5012512;28;20120;-70
2023/10/18 00:14:45;;;;;;;6.82;3.28;;;6.10;99.90;;;;;;5014864;28;20048;-70
2023/10/18 00:17:12;;;;;;;6.20;3.45;;;6.20;99.90;;;;;;5021132;28;20041;-70
2023/10/18 00:19:38;;;;;;;10.05;3.50;;;6.10;99.90;;;;;;5013055;28;20105;-70
2023/10/18 00:22:12;;;;;;;10.27;3.47;;;6.20;99.90;;;;;;5014042;28;20045;-69
2023/10/18 00:24:39;;;;;;;7.00;3.63;;;6.10;99.90;;;;;;5016335;28;20042;-70
2023/10/18 00:27:09;;;;;;;6.97;3.53;;;6.10;99.90;;;;;;5014368;28;20579;-69
2023/10/18 00:29:35;;;;;;;9.80;4.60;;;6.10;99.90;;;;;;5012169;28;20126;-70
2023/10/18 00:32:01;;;;;;;6.88;3.42;;;6.10;99.90;;;;;;5009263;28;20081;-69
2023/10/18 00:34:30;;;;;;;6.47;3.67;;;6.10;99.90;;;;;;5017989;28;20438;-70
2023/10/18 00:36:58;;;;;;;8.23;3.88;;;6.10;99.90;;;;;;5016780;28;20130;-70
2023/10/18 00:39:32;;;;;;;10.85;4.65;;;6.10;99.90;;;;;;5004795;28;20132;-70
2023/10/18 00:44:48;;;;;;;10.63;4.80;;;6.10;99.90;;;;;;5037390;28;20041;-70
2023/10/18 00:47:14;;;;;;;10.68;4.50;;;6.10;99.90;;;;;;5014133;28;20486;-70
2023/10/18 00:49:41;;;;;;;12.57;5.13;;;6.00;99.90;;;;;;5013030;28;20248;-70
2023/10/18 00:52:10;;;;;;;;;;;6.10;99.90;;;;;;5010113;28;20046;-69
2023/10/18 00:54:38;;;;;;;9.75;4.75;;;6.10;99.90;;;;;;5015619;28;19923;-70
2023/10/18 00:57:07;;;;;;;13.25;4.78;;;6.00;99.90;;;;;;5009980;28;20046;-70
2023/10/18 00:59:35;;;;;;;9.32;4.43;;;6.00;99.90;;;;;;5021090;28;20486;-70
2023/10/18 01:02:10;;;;;;;9.68;4.75;;;6.00;99.90;;;;;;5014136;28;20120;-70
2023/10/18 01:04:40;;;;;;;13.85;5.45;;;6.00;99.90;;;;;;5017805;28;21117;-70
2023/10/18 01:07:14;;;;;;;10.20;5.47;;;6.00;99.90;;;;;;5010716;28;20514;-70
2023/10/18 01:09:45;;;;;;;12.52;5.50;;;6.00;99.90;;;;;;5014413;28;20128;-70
2023/10/18 01:12:11;;;;;;;14.82;5.50;;;6.00;99.90;;;;;;5014606;28;20057;-70
2023/10/18 01:14:37;;;;;;;;;;;6.00;99.90;;;;;;5014571;28;20057;-69
2023/10/18 01:17:06;;;;;;;11.88;6.03;;;6.00;99.90;;;;;;5018281;28;20191;-70
2023/10/18 01:19:32;;;;;;;12.27;5.75;;;6.00;99.90;;;;;;5009863;28;20089;-70
2023/10/18 01:21:58;;;;;;;14.07;6.22;;;6.00;99.90;;;;;;5014796;28;20091;-70
2023/10/18 01:24:28;;;;;;;12.60;6.10;;;6.00;99.90;;;;;;5012471;28;20153;-70
2023/10/18 01:26:53;;;;;;;11.75;5.88;;;6.00;99.90;;;;;;5011553;28;20721;-70
2023/10/18 01:29:22;;;;;;;13.53;6.37;;;6.00;99.90;;;;;;5016784;28;20232;-70
2023/10/18 01:31:51;;;;;;;14.15;6.57;;;5.90;99.90;;;;;;5016338;28;20048;-69
2023/10/18 01:34:17;;;;;;;13.93;6.80;;;6.00;99.90;;;;;;5014907;28;20045;-70
2023/10/18 01:36:42;;;;;;;13.70;7.03;;;6.00;99.90;;;;;;5019592;28;20052;-70
2023/10/18 01:42:06;;;;;;;17.38;7.15;;;6.00;99.90;;;;;;5026717;28;20057;-70
2023/10/18 01:44:35;;;;;;;12.75;6.30;;;6.00;99.90;;;;;;5021486;28;20045;-69
2023/10/18 01:47:06;;;;;;;18.83;7.72;;;6.00;99.90;;;;;;5012974;28;20524;-70
2023/10/18 01:49:44;;;;;;;13.68;6.82;;;6.00;99.90;;;;;;5012095;28;20136;-70
2023/10/18 01:52:17;;;;;;;15.38;7.35;;;6.00;99.90;;;;;;5015960;28;20041;-70
2023/10/18 01:54:43;;;;;;;23.08;8.00;;;6.00;99.90;;;;;;5020556;28;20210;-70
2023/10/18 01:57:11;;;;;;;15.27;7.20;;;6.00;99.90;;;;;;5016566;28;20037;-70
2023/10/18 01:59:37;;;;;;;15.27;7.10;;;6.00;99.90;;;;;;5015649;28;20068;-70
2023/10/18 02:02:12;;;;;;;16.03;6.97;;;6.00;99.90;;;;;;4999456;28;20473;-70
2023/10/18 02:04:40;;;;;;;19.25;8.57;;;6.00;99.90;;;;;;5011267;28;20567;-70
2023/10/18 02:07:09;;;;;;;19.55;8.20;;;6.00;99.90;;;;;;4996296;28;20045;-70
2023/10/18 02:09:36;;;;;;;14.70;7.78;;;6.00;99.90;;;;;;5010986;28;20104;-70
2023/10/18 02:12:06;;;;;;;17.58;7.93;;;6.00;99.90;;;;;;5005350;28;20113;-70
2023/10/18 02:14:33;;;;;;;18.00;8.30;;;6.00;99.90;;;;;;5001830;28;20056;-70
2023/10/18 02:17:02;;;;;;;18.58;8.90;;;6.00;99.90;;;;;;5022036;28;20038;-73
2023/10/18 02:19:28;;;;;;;18.27;9.10;;;6.00;99.90;;;;;;5010391;28;20460;-71
2023/10/18 02:21:56;;;;;;;19.13;9.20;;;6.00;99.90;;;;;;5011363;28;20041;-71
2023/10/18 02:24:23;;;;;;;20.52;8.82;;;5.90;99.90;;;;;;5009231;28;20045;-71
2023/10/18 02:26:56;;;;;;;18.60;8.10;;;5.90;99.90;;;;;;5015691;28;20504;-71
2023/10/18 02:29:23;;;;;;;20.35;8.70;;;5.90;99.90;;;;;;5012842;28;20413;-70
2023/10/18 02:31:56;;;;;;;15.00;8.60;;;5.90;99.90;;;;;;5012078;28;20510;-71
2023/10/18 02:34:33;;;;;;;15.63;8.57;;;5.90;99.90;;;;;;5011882;28;20038;-71
2023/10/18 02:37:00;;;;;;;;;;;5.90;99.90;;;;;;5011515;28;20498;-71
2023/10/18 02:39:32;;;;;;;14.77;7.68;;;5.80;99.90;;;;;;5017173;28;20340;-71
2023/10/18 02:41:58;;;;;;;17.98;8.18;;;5.90;99.90;;;;;;4992132;28;20253;-70
2023/10/18 02:44:25;;;;;;;16.20;7.53;;;5.80;99.90;;;;;;5012745;28;20045;-71
2023/10/18 02:47:15;;;;;;;18.95;8.75;;;5.90;99.90;;;;;;5009977;28;20049;-70
2023/10/18 02:49:45;;;;;;;17.00;9.10;;;5.80;99.90;;;;;;5008297;28;20422;-71
2023/10/18 02:52:11;;;;;;;18.65;8.60;;;5.80;99.90;;;;;;5020658;28;20502;-70
2023/10/18 02:54:39;;;;;;;22.02;8.35;;;5.80;99.90;;;;;;5009375;28;20029;-70
2023/10/18 02:57:05;;;;;;;18.55;8.60;;;5.80;99.90;;;;;;5017677;28;20124;-70
2023/10/18 02:59:31;;;;;;;23.03;9.17;;;5.80;99.90;;;;;;5018154;28;20121;-71
2023/10/18 03:02:00;;;;;;;;;;;5.80;99.90;;;;;;5013243;28;20455;-70
2023/10/18 03:04:29;;;;;;;16.25;7.70;;;5.80;99.90;;;;;;5015474;28;20373;-70
2023/10/18 03:07:02;;;;;;;18.48;9.05;;;5.80;99.90;;;;;;5012551;28;20488;-70
2023/10/18 03:09:38;;;;;;;16.88;8.35;;;5.80;99.90;;;;;;5011690;28;20485;-70
2023/10/18 03:12:06;;;;;;;16.50;8.23;;;5.80;99.90;;;;;;5014528;28;20049;-70
2023/10/18 03:19:45;;;;;;;15.00;7.70;;;5.80;99.90;;;;;;5020153;28;20519;-70
2023/10/18 03:22:14;;;;;;;19.02;7.90;;;5.80;99.90;;;;;;5014032;28;20077;-70
2023/10/18 03:24:39;;;;;;;15.75;7.43;;;5.80;99.90;;;;;;5015529;28;20042;-70
2023/10/18 03:27:08;;;;;;;16.97;8.07;;;5.80;99.90;;;;;;4996204;28;20053;-77
2023/10/18 03:29:43;;;;;;;18.55;8.48;;;5.80;99.90;;;;;;5017586;28;20136;-70
2023/10/18 03:32:14;;;;;;;14.60;7.45;;;5.80;99.90;;;;;;5022962;28;20054;-70
2023/10/18 03:34:41;;;;;;;20.70;8.85;;;5.80;99.90;;;;;;5024476;28;20033;-70
2023/10/18 03:37:08;;;;;;;21.58;8.02;;;5.80;99.90;;;;;;5024865;28;20061;-70
2023/10/18 03:39:33;;;;;;;17.05;8.27;;;5.70;99.90;;;;;;5020646;28;20121;-71
2023/10/18 03:42:03;;;;;;;16.67;7.90;;;5.80;99.90;;;;;;5021541;28;20140;-71
2023/10/18 03:44:28;;;;;;;16.02;7.20;;;5.70;99.90;;;;;;5024510;28;20045;-70
2023/10/18 03:47:03;;;;;;;20.50;9.40;;;5.70;99.90;;;;;;5020077;28;20442;-70
2023/10/18 03:51:57;;;;;;;17.98;7.43;;;5.60;99.90;;;;;;5020996;28;20486;-70
2023/10/18 03:54:26;;;;;;;20.05;8.60;;;5.60;99.90;;;;;;5020679;28;20038;-70
2023/10/18 03:56:52;;;;;;;17.08;8.45;;;5.60;99.90;;;;;;5016195;28;20046;-70
2023/10/18 03:59:22;;;;;;;16.15;7.65;;;5.60;99.90;;;;;;5006365;28;20082;-70
2023/10/18 04:04:38;;;;;;;18.73;8.20;;;5.60;99.90;;;;;;5039513;28;20517;-70
2023/10/18 04:07:17;;;;;;;17.95;8.38;;;5.50;99.90;;;;;;5020040;28;20128;-71
2023/10/18 04:09:54;;;;;;;18.17;7.82;;;5.60;99.90;;;;;;5024288;28;20053;-71
2023/10/18 04:12:22;;;;;;;15.00;8.07;;;5.50;99.90;;;;;;5000534;28;20038;-71
2023/10/18 04:15:01;;;;;;;13.93;7.45;;;5.50;99.90;;;;;;5024381;28;20045;-71
2023/10/18 04:17:32;;;;;;;15.52;8.13;;;5.50;99.90;;;;;;5019184;28;20104;-71
2023/10/18 04:20:11;;;;;;;17.08;8.30;;;5.50;99.90;;;;;;5017334;28;20068;-70
2023/10/18 04:22:38;;;;;;;17.73;8.48;;;5.50;99.90;;;;;;5016146;28;20120;-70
2023/10/18 04:25:14;;;;;;;16.67;8.18;;;5.50;99.90;;;;;;5022966;28;20262;-70
2023/10/18 04:27:40;;;;;;;15.05;8.05;;;5.50;99.90;;;;;;5019489;28;20061;-70
2023/10/18 04:30:10;;;;;;;15.40;9.82;;;5.50;99.90;;;;;;5019733;28;20065;-70
2023/10/18 04:32:36;;;;;;;17.73;8.55;;;5.50;99.90;;;;;;5014499;28;20045;-71
2023/10/18 04:35:06;;;;;;;21.77;9.13;;;5.50;99.90;;;;;;5015441;28;20117;-71
2023/10/18 04:37:32;;;;;;;15.75;7.88;;;5.50;99.90;;;;;;5004552;28;20096;-70
2023/10/18 04:40:00;;;;;;;22.77;9.25;;;5.50;99.90;;;;;;5018174;28;20053;-70
2023/10/18 04:42:26;;;;;;;21.05;9.02;;;5.50;99.90;;;;;;5004638;28;20081;-71
2023/10/18 04:44:56;;;;;;;16.83;8.03;;;5.50;99.90;;;;;;5020408;28;20477;-70
2023/10/18 04:47:31;;;;;;;19.05;8.15;;;5.50;99.90;;;;;;5014283;28;20048;-70
2023/10/18 04:50:05;;;;;;;17.25;9.35;;;5.40;99.90;;;;;;5020205;28;20485;-70
2023/10/18 04:52:42;;;;;;;17.80;9.60;;;5.50;99.90;;;;;;5021250;28;20505;-70
2023/10/18 04:55:16;;;;;;;18.80;9.57;;;5.50;99.90;;;;;;5014398;28;20461;-71
2023/10/18 04:57:42;;;;;;;18.70;8.57;;;5.50;99.90;;;;;;5015261;28;20039;-71
2023/10/18 05:00:24;;;;;;;14.93;8.25;;;5.50;99.90;;;;;;5015152;28;20125;-70
2023/10/18 05:02:59;;;;;;;19.20;9.13;;;5.50;99.90;;;;;;5003046;28;20038;-70
2023/10/18 05:05:28;;;;;;;21.52;9.93;;;5.50;99.90;;;;;;5022087;28;20112;-71
2023/10/18 05:07:54;;;;;;;18.40;8.50;;;5.40;99.90;;;;;;5014439;28;20121;-70
2023/10/18 05:10:21;;;;;;;16.40;9.45;;;5.50;99.90;;;;;;5021091;28;20215;-70
2023/10/18 05:13:18;;;;;;;18.90;9.52;;;5.50;99.90;;;;;;5022621;28;20894;-70
2023/10/18 05:15:44;;;;;;;17.73;9.05;;;5.40;99.90;;;;;;5018591;28;20064;-71
2023/10/18 05:18:18;;;;;;;19.13;9.50;;;5.40;99.90;;;;;;5002371;28;20144;-71
2023/10/18 05:20:47;;;;;;;24.05;9.30;;;5.50;99.90;;;;;;5019397;28;20351;-71
2023/10/18 05:23:23;;;;;;;20.83;9.37;;;5.40;99.90;;;;;;5021723;28;20111;-71
2023/10/18 05:28:52;;;;;;;18.60;8.60;;;5.50;99.90;;;;;;5016212;28;20049;-71
2023/10/18 05:34:18;;;;;;;23.38;9.98;;;5.50;99.90;;;;;;5020830;28;20567;-71
2023/10/18 05:41:59;;;;;;;18.50;9.57;;;5.50;99.90;;;;;;5016866;28;20442;-72
2023/10/18 05:44:28;;;;;;;17.35;9.52;;;5.50;99.90;;;;;;5013883;28;20041;-71
2023/10/18 05:46:54;;;;;;;20.17;9.67;;;5.50;99.90;;;;;;5020055;28;20434;-71
2023/10/18 05:49:28;;;;;;;23.65;10.95;;;5.60;99.90;;;;;;5011019;28;20406;-72
2023/10/18 05:52:37;;;;;;;21.65;10.90;;;5.60;99.90;;;;;;5018231;28;20181;-71
2023/10/18 05:54:43;;;;;;;19.38;8.90;;;5.50;99.90;;;;;;5021213;28;20045;-71
2023/10/18 05:57:15;;;;;;;19.15;9.40;;;5.50;99.90;;;;;;5018784;28;20072;-71
2023/10/18 05:59:41;;;;;;;20.52;10.13;;;5.60;99.90;;;;;;5017614;28;20041;-71
2023/10/18 06:02:10;;;;;;;18.45;9.73;;;5.50;99.90;;;;;;5019418;28;20514;-71
2023/10/18 06:04:42;;;;;;;18.90;10.07;;;5.60;99.90;;;;;;5019414;28;20053;-71
2023/10/18 06:07:13;;;;;;;21.00;9.70;;;5.60;99.90;;;;;;5016530;28;20056;-71
2023/10/18 06:09:48;;;;;;;22.63;10.82;;;5.60;99.90;;;;;;5019668;28;20084;-71
2023/10/18 06:12:22;;;;;;;17.73;9.85;;;5.60;99.90;;;;;;5019268;28;20053;-72
2023/10/18 06:14:51;;;;;;;19.95;10.13;;;5.60;99.90;;;;;;5011544;28;20119;-71
2023/10/18 06:17:22;;;;;;;20.70;9.93;;;5.60;99.90;;;;;;5004320;28;20500;-71
2023/10/18 06:19:51;;;;;;;22.35;11.27;;;5.60;99.90;;;;;;5017891;28;20045;-71
2023/10/18 06:22:28;;;;;;;24.15;10.85;;;5.60;99.90;;;;;;5018891;28;20060;-71
2023/10/18 06:24:57;;;;;;;16.80;9.90;;;5.60;99.90;;;;;;5017246;28;20157;-71
2023/10/18 06:27:25;;;;;;;19.80;9.43;;;5.70;99.90;;;;;;5018114;28;20041;-72
2023/10/18 06:29:53;;;;;;;20.10;9.70;;;5.70;99.90;;;;;;5009473;28;20058;-71
2023/10/18 06:32:22;;;;;;;19.92;10.45;;;5.70;99.90;;;;;;5017548;28;20041;-72
2023/10/18 06:34:55;;;;;;;19.60;9.50;;;5.70;99.90;;;;;;5018792;28;20041;-71
2023/10/18 06:37:40;;;;;;;21.17;10.15;;;5.70;99.90;;;;;;5014424;28;20041;-72
2023/10/18 06:40:09;;;;;;;22.92;11.77;;;5.80;99.90;;;;;;5019406;28;20048;-71
2023/10/18 06:42:43;;;;;;;18.85;10.02;;;5.80;99.90;;;;;;5018235;28;20049;-71
2023/10/18 06:45:15;;;;;;;19.47;9.80;;;5.70;99.90;;;;;;5019257;28;20048;-71
2023/10/18 06:47:44;;;;;;;20.85;9.57;;;5.80;99.90;;;;;;5018786;28;20091;-71
2023/10/18 06:50:11;;;;;;;19.65;11.15;;;5.90;99.90;;;;;;5013074;28;20117;-71
2023/10/18 06:52:52;;;;;;;21.30;10.52;;;5.90;99.90;;;;;;5013561;28;20422;-71
2023/10/18 06:55:35;;;;;;;24.15;10.25;;;5.90;99.90;;;;;;5015360;28;20041;-71
2023/10/18 06:58:12;;;;;;;19.50;10.02;;;5.90;99.90;;;;;;5016261;28;20226;-71
2023/10/18 07:00:43;;;;;;;18.45;9.80;;;6.00;99.90;;;;;;5021237;28;20490;-71
2023/10/18 07:03:16;;;;;;;18.77;9.82;;;6.00;99.90;;;;;;5018269;28;20129;-71
2023/10/18 07:05:54;;;;;;;17.40;9.52;;;6.00;99.90;;;;;;5018031;28;20049;-71
2023/10/18 07:08:24;;;;;;;20.63;9.55;;;6.10;99.90;;;;;;5011603;28;20083;-71
2023/10/18 07:10:54;;;;;;;20.15;9.77;;;6.10;99.90;;;;;;4999496;28;20037;-79
2023/10/18 07:13:32;;;;;;;18.92;9.73;;;6.20;99.90;;;;;;5009055;28;20052;-71
2023/10/18 07:16:12;;;;;;;21.63;10.88;;;6.20;99.90;;;;;;5018879;28;20098;-76
2023/10/18 07:18:38;;;;;;;19.85;9.73;;;6.20;99.90;;;;;;5012216;28;20053;-75
2023/10/18 07:21:09;;;;;;;20.05;9.80;;;6.20;99.90;;;;;;5002590;28;20128;-74
2023/10/18 07:23:37;;;;;;;20.55;9.75;;;6.30;99.90;;;;;;5002451;28;20068;-71
2023/10/18 07:26:13;;;;;;;20.58;9.43;;;6.30;99.90;;;;;;5014861;28;20136;-74
2023/10/18 07:28:40;;;;;;;19.60;9.43;;;6.30;99.90;;;;;;4995759;28;20052;-77
2023/10/18 07:31:10;;;;;;;18.17;9.73;;;6.40;99.90;;;;;;5018929;28;20076;-74
2023/10/18 07:33:42;;;;;;;20.02;9.30;;;6.40;99.90;;;;;;5014733;28;20501;-71
2023/10/18 07:36:12;;;;;;;18.70;8.93;;;6.50;99.90;;;;;;5000056;28;20058;-72
2023/10/18 07:38:40;;;;;;;20.35;9.13;;;6.50;99.90;;;;;;5014168;28;20168;-72
2023/10/18 07:41:08;;;;;;;17.95;9.50;;;6.50;99.90;;;;;;5007739;28;20099;-72
2023/10/18 07:43:37;;;;;;;19.75;8.93;;;6.60;99.90;;;;;;5014802;28;20390;-71
2023/10/18 07:46:09;;;;;;;17.30;8.88;;;6.60;99.90;;;;;;5016871;28;20124;-71
2023/10/18 07:48:45;;;;;;;17.05;8.95;;;6.60;99.90;;;;;;5010736;28;20041;-72
2023/10/18 07:51:24;;;;;;;19.80;8.63;;;6.70;99.90;;;;;;5004264;28;20038;-72
2023/10/18 07:53:54;;;;;;;19.90;9.02;;;6.70;99.90;;;;;;5008219;28;20168;-71
2023/10/18 07:56:27;;;;;;;17.05;9.23;;;6.80;99.90;;;;;;4996987;28;20033;-72
2023/10/18 07:58:54;;;;;;;15.10;7.95;;;6.80;99.90;;;;;;5018916;28;20037;-72
2023/10/18 08:04:04;;;;;;;17.17;9.32;;;6.90;99.90;;;;;;5015383;28;20141;-71
2023/10/18 08:06:33;;;;;;;16.63;9.07;;;7.00;99.90;;;;;;5019957;28;20044;-71
2023/10/18 08:09:05;;;;;;;15.50;8.32;;;7.00;99.90;;;;;;5015642;28;20056;-71
2023/10/18 08:11:34;;;;;;;16.38;8.68;;;7.10;99.90;;;;;;5017363;28;20439;-71
2023/10/18 08:14:01;;;;;;;17.35;8.23;;;7.20;99.90;;;;;;5014235;28;20053;-71
2023/10/18 08:16:27;;;;;;;15.63;8.45;;;7.20;99.90;;;;;;5020700;28;20052;-71
2023/10/18 08:18:53;;;;;;;22.30;9.10;;;7.20;99.90;;;;;;5001151;28;20371;-71
2023/10/18 08:21:40;;;;;;;17.83;8.25;;;7.30;99.90;;;;;;5014242;28;20517;-72
2023/10/18 08:24:19;;;;;;;18.13;8.38;;;7.30;99.90;;;;;;5021161;28;20524;-71
2023/10/18 08:26:48;;;;;;;14.93;7.82;;;7.40;99.90;;;;;;5007273;28;20162;-71
2023/10/18 08:29:15;;;;;;;15.32;8.35;;;7.50;99.90;;;;;;5021467;28;20548;-72
2023/10/18 08:31:48;;;;;;;16.35;8.27;;;7.50;99.90;;;;;;5017574;28;20488;-72
2023/10/18 08:34:18;;;;;;;16.67;7.78;;;7.50;99.90;;;;;;5011952;28;20057;-72
2023/10/18 08:36:48;;;;;;;18.30;7.78;;;7.60;99.90;;;;;;5020036;28;20045;-72
2023/10/18 08:39:15;;;;;;;15.45;7.97;;;7.60;99.90;;;;;;5025230;28;20087;-73
2023/10/18 08:41:59;;;;;;;16.42;8.70;;;7.70;99.90;;;;;;5022277;28;20064;-72
2023/10/18 08:44:27;;;;;;;12.95;7.55;;;7.70;99.90;;;;;;5020474;28;20508;-72
2023/10/18 08:47:14;;;;;;;12.07;7.03;;;7.80;99.90;;;;;;5022908;28;20103;-72
2023/10/18 08:49:51;;;;;;;14.77;7.53;;;7.80;99.90;;;;;;5025508;28;20046;-72
2023/10/18 08:52:23;;;;;;;12.23;7.40;;;7.90;99.90;;;;;;5011642;28;20061;-72
2023/10/18 08:54:50;;;;;;;13.32;7.25;;;8.00;99.90;;;;;;5012511;28;20218;-73
2023/10/18 08:57:24;;;;;;;14.95;7.78;;;8.00;99.90;;;;;;5023349;28;20497;-73
2023/10/18 08:59:54;;;;;;;16.30;7.93;;;8.10;99.90;;;;;;5014156;28;20052;-73
2023/10/18 09:02:23;;;;;;;13.43;7.05;;;8.10;99.90;;;;;;5022936;28;20283;-73
2023/10/18 09:04:55;;;;;;;17.35;7.55;;;8.20;99.90;;;;;;5022570;28;20512;-72
2023/10/18 09:10:13;;;;;;;13.48;7.13;;;8.30;99.90;;;;;;5018646;28;20045;-73
2023/10/18 09:18:16;;;;;;;14.73;6.85;;;8.50;99.90;;;;;;5042335;28;20504;-72
2023/10/18 09:20:42;;;;;;;14.30;6.65;;;8.50;99.90;;;;;;5043460;28;20661;-72
2023/10/18 09:23:19;;;;;;;12.45;6.20;;;8.60;99.90;;;;;;5036240;28;20045;-72
2023/10/18 09:26:05;;;;;;;18.10;7.75;;;8.50;99.90;;;;;;5013481;28;20128;-72
2023/10/18 09:28:35;;;;;;;13.88;6.82;;;8.70;99.90;;;;;;5019248;28;20536;-72
2023/10/18 09:31:10;;;;;;;13.50;7.10;;;8.70;99.90;;;;;;5014089;28;20052;-73
2023/10/18 09:33:48;;;;;;;13.07;6.47;;;8.80;99.90;;;;;;5013917;28;20481;-73
2023/10/18 09:36:29;;;;;;;12.85;6.55;;;8.80;99.90;;;;;;5019974;28;20048;-73
2023/10/18 09:38:56;;;;;;;14.30;6.82;;;8.90;99.90;;;;;;5017551;28;20041;-72
2023/10/18 09:41:22;;;;;;;12.88;7.10;;;9.00;99.90;;;;;;5019080;28;20049;-72
2023/10/18 09:43:48;;;;;;;11.95;6.55;;;9.00;99.90;;;;;;5021376;28;20043;-72
2023/10/18 09:46:15;;;;;;;14.10;6.85;;;9.00;99.90;;;;;;5021166;28;20080;-72
2023/10/18 09:48:43;;;;;;;16.02;7.57;;;9.10;99.90;;;;;;5022770;28;20046;-73
2023/10/18 09:51:14;;;;;;;12.57;6.80;;;9.20;99.90;;;;;;5015899;28;20065;-73
2023/10/18 09:53:51;;;;;;;13.85;7.32;;;9.20;99.90;;;;;;5017340;28;20112;-73
2023/10/18 09:56:24;;;;;;;11.73;6.50;;;9.30;99.90;;;;;;5016169;28;20038;-73
2023/10/18 09:58:51;;;;;;;11.90;6.53;;;9.40;99.90;;;;;;5011269;28;20295;-73
2023/10/18 10:01:28;;;;;;;11.18;6.60;;;9.40;99.90;;;;;;5017999;28;20107;-73
2023/10/18 10:04:01;;;;;;;10.98;6.22;;;9.50;99.90;;;;;;5015331;28;20064;-73
2023/10/18 10:06:27;;;;;;;12.93;6.32;;;9.60;99.90;;;;;;5016325;28;20400;-73
2023/10/18 10:09:12;;;;;;;11.27;6.28;;;9.70;99.90;;;;;;5014200;28;20124;-73
2023/10/18 10:11:45;;;;;;;12.27;6.65;;;9.70;99.90;;;;;;5023329;28;20390;-73
2023/10/18 10:14:15;;;;;;;10.82;6.28;;;9.70;99.90;;;;;;5030250;28;20506;-73
2023/10/18 10:16:54;;;;;;;15.70;6.82;;;9.70;99.90;;;;;;5016973;28;20135;-73
2023/10/18 10:19:34;;;;;;;14.15;6.97;;;9.80;99.90;;;;;;4996339;28;20041;-73
2023/10/18 10:22:07;;;;;;;12.40;6.70;;;9.90;99.90;;;;;;5015070;28;20075;-73
2023/10/18 10:24:42;;;;;;;14.98;6.32;;;9.90;99.90;;;;;;5016679;28;20045;-73
2023/10/18 10:32:49;;;;;;;10.68;5.53;;;10.10;99.90;;;;;;5019175;28;20037;-73
2023/10/18 10:35:16;;;;;;;10.93;6.45;;;10.10;99.90;;;;;;5012314;28;21028;-73
2023/10/18 10:38:13;;;;;;;10.73;5.40;;;10.20;99.90;;;;;;5001296;28;20481;-73
2023/10/18 10:40:43;;;;;;;10.85;5.97;;;10.30;99.90;;;;;;5013105;28;20509;-73
2023/10/18 10:43:11;;;;;;;10.77;6.05;;;10.30;99.90;;;;;;4998541;28;20410;-73
2023/10/18 10:45:53;;;;;;;11.27;6.43;;;10.30;99.90;;;;;;5009450;28;20069;-73
2023/10/18 10:51:21;;;;;;;11.75;5.60;;;10.40;99.90;;;;;;5011127;28;20132;-71
2023/10/18 10:53:57;;;;;;;10.27;5.82;;;10.50;99.90;;;;;;5010028;28;20033;-71
2023/10/18 10:56:26;;;;;;;11.10;5.20;;;10.50;99.90;;;;;;5020599;28;20166;-71
2023/10/18 11:04:25;;;;;;;13.07;6.53;;;10.60;99.90;;;;;;5016717;28;20087;-71
2023/10/18 11:07:03;;;;;;;11.57;6.05;;;10.70;99.90;;;;;;5001920;28;20045;-71
2023/10/18 11:09:34;;;;;;;9.65;5.93;;;10.70;99.90;;;;;;4994197;28;20034;-72
2023/10/18 11:12:07;;;;;;;11.45;5.60;;;10.80;99.90;;;;;;5018289;28;20038;-71
2023/10/18 11:14:36;;;;;;;10.98;5.43;;;10.80;99.90;;;;;;5017775;28;20038;-71
2023/10/18 11:19:43;;;;;;;8.50;5.00;;;10.90;99.90;;;;;;5011778;28;20041;-72
2023/10/18 11:22:19;;;;;;;9.85;5.68;;;11.00;99.90;;;;;;5018705;28;20092;-71
2023/10/18 11:24:49;;;;;;;11.43;5.85;;;11.00;99.90;;;;;;5016045;28;20124;-72
2023/10/18 11:27:17;;;;;;;11.68;5.40;;;11.00;99.90;;;;;;5018616;28;20044;-72
2023/10/18 11:29:43;;;;;;;12.20;6.30;;;11.10;99.90;;;;;;5019947;28;20037;-72
2023/10/18 11:32:18;;;;;;;11.77;6.30;;;11.10;99.90;;;;;;5017676;28;20306;-72
2023/10/18 11:34:45;;;;;;;11.00;5.88;;;11.20;99.90;;;;;;5013678;28;20049;-72
2023/10/18 11:37:13;;;;;;;10.50;5.57;;;11.10;99.90;;;;;;5013938;28;20038;-72
2023/10/18 11:39:42;;;;;;;9.82;5.53;;;11.20;99.90;;;;;;5018177;28;20376;-72
2023/10/18 11:42:10;;;;;;;11.60;6.43;;;11.20;99.90;;;;;;5007173;28;20248;-72
2023/10/18 11:44:39;;;;;;;10.88;6.03;;;11.20;99.90;;;;;;5011219;28;20046;-72
2023/10/18 11:47:18;;;;;;;9.45;5.28;;;11.30;99.90;;;;;;5013108;28;20076;-72
2023/10/18 11:49:45;;;;;;;9.77;5.72;;;11.20;99.90;;;;;;4995490;28;20327;-72
2023/10/18 11:52:21;;;;;;;11.20;5.30;;;11.30;99.90;;;;;;5020418;28;20041;-72
2023/10/18 11:54:52;;;;;;;10.33;6.07;;;11.40;99.90;;;;;;5022906;28;20037;-72
2023/10/18 11:57:38;;;;;;;9.93;5.82;;;11.40;99.90;;;;;;5021170;28;20370;-72
2023/10/18 12:02:48;;;;;;;9.10;5.22;;;11.50;99.90;;;;;;5023917;28;20045;-72
2023/10/18 12:05:15;;;;;;;9.30;5.63;;;11.50;99.90;;;;;;5023880;28;20441;-71
2023/10/18 12:07:44;;;;;;;;;;;11.60;99.90;;;;;;5001467;28;20398;-72
2023/10/18 12:10:25;;;;;;;9.02;4.63;;;11.60;99.90;;;;;;5020335;28;20198;-71
2023/10/18 12:12:52;;;;;;;8.50;4.97;;;11.70;99.90;;;;;;5000366;28;20506;-72
2023/10/18 12:15:19;;;;;;;10.45;6.00;;;11.70;99.90;;;;;;5005595;28;20077;-72
2023/10/18 12:17:46;;;;;;;10.63;6.03;;;11.70;99.90;;;;;;5016376;28;20050;-72
2023/10/18 12:20:12;;;;;;;9.43;5.00;;;11.70;99.90;;;;;;5014476;28;20434;-72
2023/10/18 12:22:42;;;;;;;9.55;4.88;;;11.80;99.90;;;;;;5013544;28;20513;-72
2023/10/18 12:25:08;;;;;;;8.05;5.47;;;11.80;99.90;;;;;;5021073;28;21128;-71
2023/10/18 12:27:34;;;;;;;;;;;11.80;99.90;;;;;;5016692;28;20092;-72
2023/10/18 12:30:26;;;;;;;10.55;4.60;;;11.80;99.90;;;;;;5016442;28;19956;-72
2023/10/18 12:32:52;;;;;;;7.38;4.80;;;11.80;99.90;;;;;;5016757;28;20040;-71
2023/10/18 12:35:19;;;;;;;9.67;5.00;;;11.80;99.90;;;;;;5016587;28;20045;-72
2023/10/18 12:37:52;;;;;;;11.70;4.93;;;11.80;99.90;;;;;;5015650;28;20129;-72
2023/10/18 12:40:32;;;;;;;8.57;4.88;;;11.80;99.90;;;;;;5016993;28;20037;-72
2023/10/18 12:43:00;;;;;;;12.75;5.57;;;11.90;99.90;;;;;;5018994;28;20060;-72
2023/10/18 12:45:29;;;;;;;9.52;5.00;;;12.00;99.90;;;;;;5019698;28;20099;-72
2023/10/18 12:47:55;;;;;;;11.18;5.53;;;12.00;99.90;;;;;;4999504;28;20295;-72
2023/10/18 12:50:26;;;;;;;8.77;4.88;;;12.00;99.90;;;;;;5028912;28;20413;-72
2023/10/18 12:52:54;;;;;;;8.45;4.88;;;12.00;99.90;;;;;;5015702;28;20065;-72
2023/10/18 12:57:54;;;;;;;9.68;5.03;;;12.00;99.90;;;;;;5019146;28;20104;-72
2023/10/18 13:00:24;;;;;;;11.43;4.95;;;12.00;99.90;;;;;;4995554;28;20045;-72
2023/10/18 13:05:22;;;;;;;12.25;5.63;;;12.10;99.90;;;;;;5020321;28;20048;-72
2023/10/18 13:07:54;;;;;;;9.10;4.47;;;12.20;99.90;;;;;;5004016;28;20414;-71
2023/10/18 13:10:29;;;;;;;9.10;4.95;;;12.40;99.90;;;;;;5020563;28;20056;-72
2023/10/18 13:12:55;;;;;;;8.18;4.72;;;12.40;99.90;;;;;;5007467;28;20179;-72
2023/10/18 13:15:22;;;;;;;8.38;4.90;;;12.50;99.90;;;;;;5021024;28;20354;-71
2023/10/18 13:17:48;;;;;;;8.20;4.90;;;12.70;99.90;;;;;;5016298;28;20497;-72
2023/10/18 13:20:17;;;;;;;9.75;4.63;;;12.80;99.90;;;;;;5017632;28;20080;-72
2023/10/18 13:22:43;;;;;;;8.50;4.45;;;13.00;99.90;;;;;;5022656;28;20525;-72
2023/10/18 13:25:09;;;;;;;8.40;4.53;;;13.10;99.90;;;;;;5023082;28;20088;-72
2023/10/18 13:27:38;;;;;;;8.32;4.53;;;13.10;99.90;;;;;;5019380;28;20295;-72
2023/10/18 13:32:50;;;;;;;7.82;4.47;;;13.20;99.90;;;;;;5021210;28;20414;-72
2023/10/18 13:35:16;;;;;;;8.30;4.75;;;13.20;99.90;;;;;;5015536;28;20076;-72
2023/10/18 13:37:43;;;;;;;7.95;4.43;;;13.10;99.90;;;;;;5018839;28;20120;-72
2023/10/18 13:40:18;;;;;;;10.30;4.15;;;13.00;99.90;;;;;;5015237;28;20072;-73
2023/10/18 13:42:45;;;;;;;8.98;4.35;;;12.90;99.90;;;;;;5018699;28;20129;-72
2023/10/18 13:45:13;;;;;;;7.90;4.97;;;12.90;99.90;;;;;;5015123;28;20396;-72
2023/10/18 13:47:39;;;;;;;6.88;4.25;;;12.80;99.90;;;;;;5023163;28;20045;-72
2023/10/18 13:50:09;;;;;;;8.73;4.53;;;12.70;99.90;;;;;;5011494;28;20120;-72
2023/10/18 13:52:42;;;;;;;8.68;4.18;;;12.60;99.90;;;;;;5015398;28;20077;-72
2023/10/18 13:55:08;;;;;;;10.43;4.68;;;12.60;99.90;;;;;;5021486;28;20065;-72
2023/10/18 13:57:35;;;;;;;7.55;4.20;;;12.50;99.90;;;;;;5015868;28;20045;-72
2023/10/18 14:00:06;;;;;;;8.05;4.70;;;12.60;99.90;;;;;;5018796;28;20144;-72
2023/10/18 14:02:36;;;;;;;8.15;4.13;;;12.40;99.90;;;;;;5018055;28;20052;-72
2023/10/18 14:05:08;;;;;;;7.53;4.65;;;12.40;99.90;;;;;;5022570;28;20049;-72
2023/10/18 14:07:37;;;;;;;8.05;4.43;;;12.40;99.90;;;;;;5016182;28;20077;-72
2023/10/18 14:10:19;;;;;;;7.68;4.55;;;12.30;99.90;;;;;;5019112;28;20088;-73